sensor_id;sensor_type;location;lat;lon;timestamp;P1;durP1;ratioP1;P2;durP2;ratioP2
76171;SDS011;64929;51.178;4.138;2023-07-20T00:01:59;6.00;;;2.15;;
76171;SDS011;64929;51.178;4.138;2023-07-20T00:04:24;4.38;;;2.03;;
76171;SDS011;64929;51.178;4.138;2023-07-20T00:06:50;9.18;;;3.08;;
76171;SDS011;64929;51.178;4.138;2023-07-20T00:09:16;6.40;;;2.47;;
76171;SDS011;64929;51.178;4.138;2023-07-20T00:11:47;7.00;;;2.50;;
76171;SDS011;64929;51.178;4.138;2023-07-20T00:14:15;4.03;;;2.28;;
76171;SDS011;64929;51.178;4.138;2023-07-20T00:16:41;5.20;;;2.13;;
76171;SDS011;64929;51.178;4.138;2023-07-20T00:19:07;7.30;;;2.20;;
76171;SDS011;64929;51.178;4.138;2023-07-20T00:21:35;5.30;;;2.38;;
76171;SDS011;64929;51.178;4.138;2023-07-20T00:24:01;3.45;;;2.17;;
76171;SDS011;64929;51.178;4.138;2023-07-20T00:26:26;5.90;;;2.65;;
76171;SDS011;64929;51.178;4.138;2023-07-20T00:28:52;8.02;;;2.65;;
76171;SDS011;64929;51.178;4.138;2023-07-20T00:31:18;5.97;;;2.35;;
76171;SDS011;64929;51.178;4.138;2023-07-20T00:33:43;5.53;;;2.47;;
76171;SDS011;64929;51.178;4.138;2023-07-20T00:36:09;6.63;;;2.33;;
76171;SDS011;64929;51.178;4.138;2023-07-20T00:38:35;7.68;;;2.80;;
76171;SDS011;64929;51.178;4.138;2023-07-20T00:41:01;8.18;;;2.67;;
76171;SDS011;64929;51.178;4.138;2023-07-20T00:43:26;7.63;;;2.53;;
76171;SDS011;64929;51.178;4.138;2023-07-20T00:45:52;10.80;;;2.70;;
76171;SDS011;64929;51.178;4.138;2023-07-20T00:48:18;8.45;;;2.97;;
76171;SDS011;64929;51.178;4.138;2023-07-20T00:50:44;4.95;;;2.75;;
76171;SDS011;64929;51.178;4.138;2023-07-20T00:53:11;5.68;;;2.97;;
76171;SDS011;64929;51.178;4.138;2023-07-20T00:55:36;6.50;;;2.97;;
76171;SDS011;64929;51.178;4.138;2023-07-20T00:58:02;5.85;;;2.58;;
76171;SDS011;64929;51.178;4.138;2023-07-20T01:00:29;7.10;;;2.72;;
76171;SDS011;64929;51.178;4.138;2023-07-20T01:02:55;4.63;;;2.42;;
76171;SDS011;64929;51.178;4.138;2023-07-20T01:05:21;5.22;;;2.28;;
76171;SDS011;64929;51.178;4.138;2023-07-20T01:07:55;5.95;;;2.63;;
76171;SDS011;64929;51.178;4.138;2023-07-20T01:10:40;6.15;;;2.63;;
76171;SDS011;64929;51.178;4.138;2023-07-20T01:13:13;6.90;;;2.60;;
76171;SDS011;64929;51.178;4.138;2023-07-20T01:15:40;6.40;;;2.70;;
76171;SDS011;64929;51.178;4.138;2023-07-20T01:18:06;5.63;;;2.53;;
76171;SDS011;64929;51.178;4.138;2023-07-20T01:20:32;4.25;;;2.88;;
76171;SDS011;64929;51.178;4.138;2023-07-20T01:31:27;5.10;;;2.92;;
76171;SDS011;64929;51.178;4.138;2023-07-20T01:33:56;8.20;;;3.05;;
76171;SDS011;64929;51.178;4.138;2023-07-20T01:36:23;7.50;;;2.40;;
76171;SDS011;64929;51.178;4.138;2023-07-20T01:38:52;5.43;;;3.00;;
76171;SDS011;64929;51.178;4.138;2023-07-20T01:41:18;4.85;;;2.70;;
76171;SDS011;64929;51.178;4.138;2023-07-20T01:43:44;4.90;;;2.53;;
76171;SDS011;64929;51.178;4.138;2023-07-20T01:46:10;5.22;;;2.85;;
76171;SDS011;64929;51.178;4.138;2023-07-20T01:48:35;7.20;;;3.33;;
76171;SDS011;64929;51.178;4.138;2023-07-20T01:51:01;6.78;;;3.10;;
76171;SDS011;64929;51.178;4.138;2023-07-20T01:53:27;8.25;;;2.92;;
76171;SDS011;64929;51.178;4.138;2023-07-20T01:55:53;6.55;;;2.92;;
76171;SDS011;64929;51.178;4.138;2023-07-20T01:58:19;4.88;;;3.10;;
76171;SDS011;64929;51.178;4.138;2023-07-20T02:00:45;4.75;;;2.85;;
76171;SDS011;64929;51.178;4.138;2023-07-20T02:03:11;4.63;;;3.03;;
76171;SDS011;64929;51.178;4.138;2023-07-20T02:05:37;5.70;;;3.50;;
76171;SDS011;64929;51.178;4.138;2023-07-20T02:08:03;4.25;;;2.92;;
76171;SDS011;64929;51.178;4.138;2023-07-20T02:10:29;3.83;;;2.92;;
76171;SDS011;64929;51.178;4.138;2023-07-20T02:12:54;4.78;;;3.20;;
76171;SDS011;64929;51.178;4.138;2023-07-20T02:15:20;7.28;;;3.55;;
76171;SDS011;64929;51.178;4.138;2023-07-20T02:17:46;5.40;;;3.08;;
76171;SDS011;64929;51.178;4.138;2023-07-20T02:20:12;5.22;;;2.85;;
76171;SDS011;64929;51.178;4.138;2023-07-20T02:22:38;9.52;;;3.53;;
76171;SDS011;64929;51.178;4.138;2023-07-20T02:25:05;3.28;;;2.78;;
76171;SDS011;64929;51.178;4.138;2023-07-20T02:27:32;6.18;;;3.42;;
76171;SDS011;64929;51.178;4.138;2023-07-20T02:30:00;7.03;;;3.00;;
76171;SDS011;64929;51.178;4.138;2023-07-20T02:32:27;6.57;;;3.08;;
76171;SDS011;64929;51.178;4.138;2023-07-20T02:34:53;4.00;;;2.83;;
76171;SDS011;64929;51.178;4.138;2023-07-20T02:37:19;5.05;;;2.97;;
76171;SDS011;64929;51.178;4.138;2023-07-20T02:39:45;5.65;;;3.45;;
76171;SDS011;64929;51.178;4.138;2023-07-20T02:42:10;6.55;;;3.22;;
76171;SDS011;64929;51.178;4.138;2023-07-20T02:44:36;5.85;;;3.13;;
76171;SDS011;64929;51.178;4.138;2023-07-20T02:47:02;4.45;;;3.78;;
76171;SDS011;64929;51.178;4.138;2023-07-20T02:49:27;6.78;;;3.30;;
76171;SDS011;64929;51.178;4.138;2023-07-20T02:51:53;4.50;;;3.55;;
76171;SDS011;64929;51.178;4.138;2023-07-20T02:54:19;6.65;;;4.05;;
76171;SDS011;64929;51.178;4.138;2023-07-20T02:56:46;4.93;;;3.80;;
76171;SDS011;64929;51.178;4.138;2023-07-20T02:59:11;5.85;;;4.35;;
76171;SDS011;64929;51.178;4.138;2023-07-20T03:01:37;6.55;;;3.67;;
76171;SDS011;64929;51.178;4.138;2023-07-20T03:04:03;6.13;;;3.65;;
76171;SDS011;64929;51.178;4.138;2023-07-20T03:06:29;5.80;;;3.45;;
76171;SDS011;64929;51.178;4.138;2023-07-20T03:08:54;4.93;;;3.60;;
76171;SDS011;64929;51.178;4.138;2023-07-20T03:11:20;6.85;;;3.78;;
76171;SDS011;64929;51.178;4.138;2023-07-20T03:13:46;6.32;;;3.70;;
76171;SDS011;64929;51.178;4.138;2023-07-20T03:16:13;6.30;;;3.58;;
76171;SDS011;64929;51.178;4.138;2023-07-20T03:18:43;7.32;;;3.83;;
76171;SDS011;64929;51.178;4.138;2023-07-20T03:21:09;4.72;;;3.67;;
76171;SDS011;64929;51.178;4.138;2023-07-20T03:23:39;9.02;;;3.80;;
76171;SDS011;64929;51.178;4.138;2023-07-20T03:26:05;6.43;;;3.58;;
76171;SDS011;64929;51.178;4.138;2023-07-20T03:28:34;6.72;;;4.25;;
76171;SDS011;64929;51.178;4.138;2023-07-20T03:31:03;5.25;;;4.00;;
76171;SDS011;64929;51.178;4.138;2023-07-20T03:33:29;5.78;;;4.00;;
76171;SDS011;64929;51.178;4.138;2023-07-20T03:35:55;6.43;;;3.88;;
76171;SDS011;64929;51.178;4.138;2023-07-20T03:38:22;6.28;;;4.60;;
76171;SDS011;64929;51.178;4.138;2023-07-20T03:40:51;5.43;;;3.90;;
76171;SDS011;64929;51.178;4.138;2023-07-20T03:43:18;7.15;;;3.88;;
76171;SDS011;64929;51.178;4.138;2023-07-20T03:45:44;5.18;;;3.75;;
76171;SDS011;64929;51.178;4.138;2023-07-20T03:48:13;6.53;;;4.20;;
76171;SDS011;64929;51.178;4.138;2023-07-20T03:50:46;7.60;;;4.03;;
76171;SDS011;64929;51.178;4.138;2023-07-20T03:53:13;5.82;;;4.15;;
76171;SDS011;64929;51.178;4.138;2023-07-20T03:55:40;9.63;;;4.53;;
76171;SDS011;64929;51.178;4.138;2023-07-20T03:58:12;5.53;;;4.22;;
76171;SDS011;64929;51.178;4.138;2023-07-20T04:00:38;7.32;;;4.18;;
76171;SDS011;64929;51.178;4.138;2023-07-20T04:03:05;5.82;;;4.25;;
76171;SDS011;64929;51.178;4.138;2023-07-20T04:05:30;6.05;;;3.97;;
76171;SDS011;64929;51.178;4.138;2023-07-20T04:07:56;9.30;;;4.10;;
76171;SDS011;64929;51.178;4.138;2023-07-20T04:10:22;7.15;;;3.95;;
76171;SDS011;64929;51.178;4.138;2023-07-20T04:12:47;4.85;;;4.22;;
76171;SDS011;64929;51.178;4.138;2023-07-20T04:15:13;6.65;;;4.50;;
76171;SDS011;64929;51.178;4.138;2023-07-20T04:34:26;6.75;;;4.25;;
76171;SDS011;64929;51.178;4.138;2023-07-20T04:36:52;8.65;;;4.40;;
76171;SDS011;64929;51.178;4.138;2023-07-20T04:39:18;5.10;;;3.75;;
76171;SDS011;64929;51.178;4.138;2023-07-20T04:41:43;5.80;;;4.00;;
76171;SDS011;64929;51.178;4.138;2023-07-20T04:44:09;6.45;;;3.70;;
76171;SDS011;64929;51.178;4.138;2023-07-20T04:46:35;5.50;;;4.00;;
76171;SDS011;64929;51.178;4.138;2023-07-20T04:49:00;6.22;;;3.83;;
76171;SDS011;64929;51.178;4.138;2023-07-20T04:51:26;5.68;;;4.05;;
76171;SDS011;64929;51.178;4.138;2023-07-20T04:53:55;5.63;;;4.07;;
76171;SDS011;64929;51.178;4.138;2023-07-20T04:56:21;6.10;;;3.63;;
76171;SDS011;64929;51.178;4.138;2023-07-20T04:58:48;6.20;;;3.53;;
76171;SDS011;64929;51.178;4.138;2023-07-20T05:01:14;5.57;;;4.15;;
76171;SDS011;64929;51.178;4.138;2023-07-20T05:03:39;6.45;;;3.97;;
76171;SDS011;64929;51.178;4.138;2023-07-20T05:06:05;4.90;;;3.42;;
76171;SDS011;64929;51.178;4.138;2023-07-20T05:08:31;5.22;;;4.00;;
76171;SDS011;64929;51.178;4.138;2023-07-20T05:10:56;4.30;;;3.58;;
76171;SDS011;64929;51.178;4.138;2023-07-20T05:13:23;3.55;;;3.25;;
76171;SDS011;64929;51.178;4.138;2023-07-20T05:15:52;3.58;;;3.28;;
76171;SDS011;64929;51.178;4.138;2023-07-20T05:18:18;5.63;;;3.83;;
76171;SDS011;64929;51.178;4.138;2023-07-20T05:20:49;4.50;;;3.45;;
76171;SDS011;64929;51.178;4.138;2023-07-20T05:23:18;5.60;;;3.83;;
76171;SDS011;64929;51.178;4.138;2023-07-20T05:25:53;3.60;;;3.08;;
76171;SDS011;64929;51.178;4.138;2023-07-20T05:28:20;4.70;;;3.80;;
76171;SDS011;64929;51.178;4.138;2023-07-20T05:30:45;4.15;;;3.17;;
76171;SDS011;64929;51.178;4.138;2023-07-20T05:33:11;4.55;;;3.25;;
76171;SDS011;64929;51.178;4.138;2023-07-20T05:35:37;3.13;;;2.80;;
76171;SDS011;64929;51.178;4.138;2023-07-20T05:38:02;5.50;;;2.88;;
76171;SDS011;64929;51.178;4.138;2023-07-20T05:40:30;4.85;;;2.60;;
76171;SDS011;64929;51.178;4.138;2023-07-20T05:42:55;4.55;;;2.70;;
76171;SDS011;64929;51.178;4.138;2023-07-20T05:45:22;3.22;;;2.92;;
76171;SDS011;64929;51.178;4.138;2023-07-20T05:47:48;3.22;;;2.30;;
76171;SDS011;64929;51.178;4.138;2023-07-20T05:50:13;2.20;;;2.00;;
76171;SDS011;64929;51.178;4.138;2023-07-20T05:52:39;3.13;;;1.88;;
76171;SDS011;64929;51.178;4.138;2023-07-20T05:55:06;3.20;;;2.08;;
76171;SDS011;64929;51.178;4.138;2023-07-20T05:57:32;2.20;;;1.90;;
76171;SDS011;64929;51.178;4.138;2023-07-20T05:59:58;2.83;;;2.25;;
76171;SDS011;64929;51.178;4.138;2023-07-20T06:02:24;2.72;;;1.85;;
76171;SDS011;64929;51.178;4.138;2023-07-20T06:04:49;1.60;;;1.50;;
76171;SDS011;64929;51.178;4.138;2023-07-20T06:07:15;2.17;;;1.70;;
76171;SDS011;64929;51.178;4.138;2023-07-20T06:09:41;1.80;;;1.67;;
76171;SDS011;64929;51.178;4.138;2023-07-20T06:12:06;2.60;;;1.73;;
76171;SDS011;64929;51.178;4.138;2023-07-20T06:14:33;2.47;;;1.80;;
76171;SDS011;64929;51.178;4.138;2023-07-20T06:16:59;2.45;;;1.70;;
76171;SDS011;64929;51.178;4.138;2023-07-20T06:19:24;2.13;;;1.73;;
76171;SDS011;64929;51.178;4.138;2023-07-20T06:21:50;1.90;;;1.80;;
76171;SDS011;64929;51.178;4.138;2023-07-20T06:24:16;1.75;;;1.60;;
76171;SDS011;64929;51.178;4.138;2023-07-20T06:26:42;1.77;;;1.13;;
76171;SDS011;64929;51.178;4.138;2023-07-20T06:29:08;1.45;;;1.35;;
76171;SDS011;64929;51.178;4.138;2023-07-20T06:31:34;1.90;;;0.93;;
76171;SDS011;64929;51.178;4.138;2023-07-20T06:34:01;0.80;;;0.80;;
76171;SDS011;64929;51.178;4.138;2023-07-20T06:36:27;0.70;;;0.70;;
76171;SDS011;64929;51.178;4.138;2023-07-20T06:38:53;3.47;;;0.77;;
76171;SDS011;64929;51.178;4.138;2023-07-20T06:41:19;1.13;;;0.90;;
76171;SDS011;64929;51.178;4.138;2023-07-20T06:43:45;0.77;;;0.50;;
76171;SDS011;64929;51.178;4.138;2023-07-20T06:46:11;0.60;;;0.40;;
76171;SDS011;64929;51.178;4.138;2023-07-20T06:48:36;0.43;;;0.30;;
76171;SDS011;64929;51.178;4.138;2023-07-20T06:51:02;0.40;;;0.32;;
76171;SDS011;64929;51.178;4.138;2023-07-20T06:53:28;0.30;;;0.30;;
76171;SDS011;64929;51.178;4.138;2023-07-20T06:55:54;0.93;;;0.38;;
76171;SDS011;64929;51.178;4.138;2023-07-20T06:58:22;1.33;;;0.40;;
76171;SDS011;64929;51.178;4.138;2023-07-20T07:00:48;0.30;;;0.30;;
76171;SDS011;64929;51.178;4.138;2023-07-20T07:03:14;0.52;;;0.50;;
76171;SDS011;64929;51.178;4.138;2023-07-20T07:05:40;0.20;;;0.20;;
76171;SDS011;64929;51.178;4.138;2023-07-20T07:08:06;2.05;;;0.40;;
76171;SDS011;64929;51.178;4.138;2023-07-20T07:10:32;0.30;;;0.30;;
76171;SDS011;64929;51.178;4.138;2023-07-20T07:12:59;0.20;;;0.20;;
76171;SDS011;64929;51.178;4.138;2023-07-20T07:15:25;0.40;;;0.40;;
76171;SDS011;64929;51.178;4.138;2023-07-20T07:17:51;1.02;;;0.40;;
76171;SDS011;64929;51.178;4.138;2023-07-20T07:20:17;0.80;;;0.43;;
76171;SDS011;64929;51.178;4.138;2023-07-20T07:22:42;1.20;;;0.40;;
76171;SDS011;64929;51.178;4.138;2023-07-20T07:25:09;0.90;;;0.30;;
76171;SDS011;64929;51.178;4.138;2023-07-20T07:27:35;0.20;;;0.20;;
76171;SDS011;64929;51.178;4.138;2023-07-20T07:30:01;0.38;;;0.30;;
76171;SDS011;64929;51.178;4.138;2023-07-20T07:32:27;1.33;;;0.30;;
76171;SDS011;64929;51.178;4.138;2023-07-20T07:34:53;0.30;;;0.28;;
76171;SDS011;64929;51.178;4.138;2023-07-20T07:37:19;0.50;;;0.38;;
76171;SDS011;64929;51.178;4.138;2023-07-20T07:39:45;0.20;;;0.20;;
76171;SDS011;64929;51.178;4.138;2023-07-20T07:42:11;0.57;;;0.30;;
76171;SDS011;64929;51.178;4.138;2023-07-20T07:44:38;1.50;;;0.77;;
76171;SDS011;64929;51.178;4.138;2023-07-20T07:47:03;0.40;;;0.40;;
76171;SDS011;64929;51.178;4.138;2023-07-20T07:49:29;0.30;;;0.30;;
76171;SDS011;64929;51.178;4.138;2023-07-20T07:51:56;0.52;;;0.30;;
76171;SDS011;64929;51.178;4.138;2023-07-20T07:54:22;0.30;;;0.30;;
76171;SDS011;64929;51.178;4.138;2023-07-20T07:56:48;0.20;;;0.20;;
76171;SDS011;64929;51.178;4.138;2023-07-20T07:59:13;0.30;;;0.30;;
76171;SDS011;64929;51.178;4.138;2023-07-20T08:01:39;0.80;;;0.30;;
76171;SDS011;64929;51.178;4.138;2023-07-20T08:04:05;0.98;;;0.20;;
76171;SDS011;64929;51.178;4.138;2023-07-20T08:06:30;0.20;;;0.20;;
76171;SDS011;64929;51.178;4.138;2023-07-20T08:08:56;1.05;;;0.20;;
76171;SDS011;64929;51.178;4.138;2023-07-20T08:11:22;0.30;;;0.17;;
76171;SDS011;64929;51.178;4.138;2023-07-20T08:13:48;0.20;;;0.20;;
76171;SDS011;64929;51.178;4.138;2023-07-20T08:16:14;0.68;;;0.32;;
76171;SDS011;64929;51.178;4.138;2023-07-20T08:18:40;0.70;;;0.30;;
76171;SDS011;64929;51.178;4.138;2023-07-20T08:21:05;0.30;;;0.30;;
76171;SDS011;64929;51.178;4.138;2023-07-20T08:23:31;1.20;;;0.35;;
76171;SDS011;64929;51.178;4.138;2023-07-20T08:25:57;0.60;;;0.40;;
76171;SDS011;64929;51.178;4.138;2023-07-20T08:28:22;1.75;;;0.38;;
76171;SDS011;64929;51.178;4.138;2023-07-20T08:30:48;0.35;;;0.20;;
76171;SDS011;64929;51.178;4.138;2023-07-20T08:33:15;0.10;;;0.10;;
76171;SDS011;64929;51.178;4.138;2023-07-20T08:35:44;0.15;;;0.15;;
76171;SDS011;64929;51.178;4.138;2023-07-20T08:38:10;2.17;;;0.20;;
76171;SDS011;64929;51.178;4.138;2023-07-20T08:40:44;0.30;;;0.20;;
76171;SDS011;64929;51.178;4.138;2023-07-20T08:43:11;0.20;;;0.20;;
76171;SDS011;64929;51.178;4.138;2023-07-20T08:45:38;0.38;;;0.20;;
76171;SDS011;64929;51.178;4.138;2023-07-20T08:48:05;1.20;;;0.38;;
76171;SDS011;64929;51.178;4.138;2023-07-20T08:50:32;0.13;;;0.13;;
76171;SDS011;64929;51.178;4.138;2023-07-20T08:52:58;0.10;;;0.10;;
76171;SDS011;64929;51.178;4.138;2023-07-20T08:55:26;0.28;;;0.20;;
76171;SDS011;64929;51.178;4.138;2023-07-20T08:57:56;0.63;;;0.20;;
76171;SDS011;64929;51.178;4.138;2023-07-20T09:00:26;0.10;;;0.10;;
76171;SDS011;64929;51.178;4.138;2023-07-20T09:02:53;0.20;;;0.20;;
76171;SDS011;64929;51.178;4.138;2023-07-20T09:05:19;0.90;;;0.15;;
76171;SDS011;64929;51.178;4.138;2023-07-20T09:07:46;0.20;;;0.20;;
76171;SDS011;64929;51.178;4.138;2023-07-20T09:10:11;0.35;;;0.10;;
76171;SDS011;64929;51.178;4.138;2023-07-20T09:12:42;0.30;;;0.30;;
76171;SDS011;64929;51.178;4.138;2023-07-20T09:15:08;0.28;;;0.20;;
76171;SDS011;64929;51.178;4.138;2023-07-20T09:17:35;1.25;;;0.20;;
76171;SDS011;64929;51.178;4.138;2023-07-20T09:20:06;0.10;;;0.10;;
76171;SDS011;64929;51.178;4.138;2023-07-20T09:22:36;0.75;;;0.30;;
76171;SDS011;64929;51.178;4.138;2023-07-20T09:27:39;0.30;;;0.30;;
76171;SDS011;64929;51.178;4.138;2023-07-20T09:30:14;1.00;;;0.32;;
76171;SDS011;64929;51.178;4.138;2023-07-20T09:32:42;0.25;;;0.20;;
76171;SDS011;64929;51.178;4.138;2023-07-20T09:35:18;0.25;;;0.20;;
76171;SDS011;64929;51.178;4.138;2023-07-20T09:37:54;1.40;;;0.40;;
76171;SDS011;64929;51.178;4.138;2023-07-20T09:40:23;0.68;;;0.50;;
76171;SDS011;64929;51.178;4.138;2023-07-20T09:42:50;0.40;;;0.25;;
76171;SDS011;64929;51.178;4.138;2023-07-20T09:45:18;0.30;;;0.30;;
76171;SDS011;64929;51.178;4.138;2023-07-20T09:47:44;0.55;;;0.30;;
76171;SDS011;64929;51.178;4.138;2023-07-20T09:50:10;1.13;;;0.40;;
76171;SDS011;64929;51.178;4.138;2023-07-20T09:52:39;0.40;;;0.40;;
76171;SDS011;64929;51.178;4.138;2023-07-20T09:55:09;0.50;;;0.30;;
76171;SDS011;64929;51.178;4.138;2023-07-20T09:57:37;0.30;;;0.30;;
76171;SDS011;64929;51.178;4.138;2023-07-20T10:00:04;0.65;;;0.40;;
76171;SDS011;64929;51.178;4.138;2023-07-20T10:02:43;0.50;;;0.30;;
76171;SDS011;64929;51.178;4.138;2023-07-20T10:05:13;0.55;;;0.30;;
76171;SDS011;64929;51.178;4.138;2023-07-20T10:07:47;1.92;;;0.55;;
76171;SDS011;64929;51.178;4.138;2023-07-20T10:10:17;0.22;;;0.22;;
76171;SDS011;64929;51.178;4.138;2023-07-20T10:12:44;2.17;;;0.30;;
76171;SDS011;64929;51.178;4.138;2023-07-20T10:18:21;0.45;;;0.45;;
76171;SDS011;64929;51.178;4.138;2023-07-20T10:20:41;0.40;;;0.40;;
76171;SDS011;64929;51.178;4.138;2023-07-20T10:23:08;0.50;;;0.50;;
76171;SDS011;64929;51.178;4.138;2023-07-20T10:25:34;0.80;;;0.80;;
76171;SDS011;64929;51.178;4.138;2023-07-20T10:28:05;0.85;;;0.85;;
76171;SDS011;64929;51.178;4.138;2023-07-20T10:30:31;1.83;;;1.30;;
76171;SDS011;64929;51.178;4.138;2023-07-20T10:33:04;1.40;;;1.30;;
76171;SDS011;64929;51.178;4.138;2023-07-20T10:35:30;1.80;;;1.70;;
76171;SDS011;64929;51.178;4.138;2023-07-20T10:38:15;2.40;;;1.70;;
76171;SDS011;64929;51.178;4.138;2023-07-20T10:40:40;1.90;;;1.80;;
76171;SDS011;64929;51.178;4.138;2023-07-20T10:43:06;1.60;;;1.50;;
76171;SDS011;64929;51.178;4.138;2023-07-20T10:45:37;2.80;;;2.60;;
76171;SDS011;64929;51.178;4.138;2023-07-20T10:48:16;3.08;;;2.80;;
76171;SDS011;64929;51.178;4.138;2023-07-20T10:51:08;2.80;;;2.55;;
76171;SDS011;64929;51.178;4.138;2023-07-20T10:53:48;3.03;;;2.78;;
76171;SDS011;64929;51.178;4.138;2023-07-20T10:56:19;3.40;;;3.10;;
76171;SDS011;64929;51.178;4.138;2023-07-20T10:58:45;2.92;;;2.20;;
76171;SDS011;64929;51.178;4.138;2023-07-20T11:01:15;4.40;;;2.55;;
76171;SDS011;64929;51.178;4.138;2023-07-20T11:03:42;3.00;;;2.70;;
76171;SDS011;64929;51.178;4.138;2023-07-20T11:08:54;2.92;;;2.72;;
76171;SDS011;64929;51.178;4.138;2023-07-20T11:11:38;3.65;;;2.95;;
76171;SDS011;64929;51.178;4.138;2023-07-20T11:16:43;3.10;;;2.90;;
76171;SDS011;64929;51.178;4.138;2023-07-20T11:19:16;3.15;;;2.95;;
76171;SDS011;64929;51.178;4.138;2023-07-20T11:21:43;3.38;;;3.08;;
76171;SDS011;64929;51.178;4.138;2023-07-20T11:24:10;3.55;;;3.25;;
76171;SDS011;64929;51.178;4.138;2023-07-20T11:26:44;3.80;;;2.97;;
76171;SDS011;64929;51.178;4.138;2023-07-20T11:29:12;2.83;;;2.63;;
76171;SDS011;64929;51.178;4.138;2023-07-20T11:31:39;2.67;;;2.55;;
76171;SDS011;64929;51.178;4.138;2023-07-20T11:34:06;2.85;;;2.65;;
76171;SDS011;64929;51.178;4.138;2023-07-20T11:36:36;3.28;;;3.03;;
76171;SDS011;64929;51.178;4.138;2023-07-20T11:39:02;3.00;;;2.80;;
76171;SDS011;64929;51.178;4.138;2023-07-20T11:41:29;3.00;;;2.78;;
76171;SDS011;64929;51.178;4.138;2023-07-20T11:43:56;3.13;;;2.83;;
76171;SDS011;64929;51.178;4.138;2023-07-20T11:46:22;5.78;;;3.17;;
76171;SDS011;64929;51.178;4.138;2023-07-20T11:48:48;2.92;;;2.72;;
76171;SDS011;64929;51.178;4.138;2023-07-20T11:51:14;2.78;;;2.58;;
76171;SDS011;64929;51.178;4.138;2023-07-20T11:53:41;2.70;;;2.50;;
76171;SDS011;64929;51.178;4.138;2023-07-20T11:56:09;3.20;;;2.90;;
76171;SDS011;64929;51.178;4.138;2023-07-20T11:58:35;2.70;;;2.50;;
76171;SDS011;64929;51.178;4.138;2023-07-20T12:01:06;2.50;;;2.30;;
76171;SDS011;64929;51.178;4.138;2023-07-20T12:03:32;2.53;;;2.40;;
76171;SDS011;64929;51.178;4.138;2023-07-20T12:06:05;2.50;;;2.40;;
76171;SDS011;64929;51.178;4.138;2023-07-20T12:08:34;3.55;;;3.15;;
76171;SDS011;64929;51.178;4.138;2023-07-20T12:11:03;2.40;;;2.20;;
76171;SDS011;64929;51.178;4.138;2023-07-20T12:13:38;3.42;;;2.38;;
76171;SDS011;64929;51.178;4.138;2023-07-20T12:16:10;2.55;;;2.35;;
76171;SDS011;64929;51.178;4.138;2023-07-20T12:18:38;4.32;;;2.20;;
76171;SDS011;64929;51.178;4.138;2023-07-20T12:21:10;2.33;;;2.13;;
76171;SDS011;64929;51.178;4.138;2023-07-20T12:23:40;2.30;;;2.08;;
76171;SDS011;64929;51.178;4.138;2023-07-20T12:26:07;2.10;;;2.00;;
76171;SDS011;64929;51.178;4.138;2023-07-20T12:28:43;2.13;;;2.03;;
76171;SDS011;64929;51.178;4.138;2023-07-20T12:31:09;2.75;;;2.03;;
76171;SDS011;64929;51.178;4.138;2023-07-20T12:33:36;3.53;;;2.72;;
76171;SDS011;64929;51.178;4.138;2023-07-20T12:36:03;2.63;;;2.42;;
76171;SDS011;64929;51.178;4.138;2023-07-20T12:38:29;2.60;;;2.40;;
76171;SDS011;64929;51.178;4.138;2023-07-20T12:40:57;3.03;;;2.83;;
76171;SDS011;64929;51.178;4.138;2023-07-20T12:43:27;2.80;;;2.60;;
76171;SDS011;64929;51.178;4.138;2023-07-20T12:45:53;3.72;;;2.35;;
76171;SDS011;64929;51.178;4.138;2023-07-20T12:48:19;2.83;;;2.30;;
76171;SDS011;64929;51.178;4.138;2023-07-20T12:50:45;3.08;;;2.33;;
76171;SDS011;64929;51.178;4.138;2023-07-20T12:53:11;2.30;;;2.15;;
76171;SDS011;64929;51.178;4.138;2023-07-20T12:55:37;2.30;;;2.13;;
76171;SDS011;64929;51.178;4.138;2023-07-20T13:26:31;2.63;;;2.22;;
76171;SDS011;64929;51.178;4.138;2023-07-20T13:28:57;3.25;;;2.90;;
76171;SDS011;64929;51.178;4.138;2023-07-20T13:31:22;2.65;;;2.45;;
76171;SDS011;64929;51.178;4.138;2023-07-20T13:33:48;2.17;;;2.08;;
76171;SDS011;64929;51.178;4.138;2023-07-20T13:36:14;4.72;;;2.38;;
76171;SDS011;64929;51.178;4.138;2023-07-20T13:38:39;6.68;;;2.33;;
76171;SDS011;64929;51.178;4.138;2023-07-20T13:41:05;2.95;;;2.30;;
76171;SDS011;64929;51.178;4.138;2023-07-20T13:43:31;1.83;;;1.70;;
76171;SDS011;64929;51.178;4.138;2023-07-20T13:45:56;5.53;;;2.50;;
76171;SDS011;64929;51.178;4.138;2023-07-20T13:48:22;2.05;;;1.77;;
76171;SDS011;64929;51.178;4.138;2023-07-20T13:50:48;2.33;;;2.13;;
76171;SDS011;64929;51.178;4.138;2023-07-20T13:53:14;2.30;;;1.70;;
76171;SDS011;64929;51.178;4.138;2023-07-20T13:55:41;2.00;;;1.63;;
76171;SDS011;64929;51.178;4.138;2023-07-20T13:58:07;2.10;;;1.63;;
76171;SDS011;64929;51.178;4.138;2023-07-20T14:00:35;1.92;;;1.70;;
76171;SDS011;64929;51.178;4.138;2023-07-20T14:03:01;6.82;;;1.60;;
76171;SDS011;64929;51.178;4.138;2023-07-20T14:05:27;2.53;;;1.70;;
76171;SDS011;64929;51.178;4.138;2023-07-20T14:07:53;2.63;;;1.60;;
76171;SDS011;64929;51.178;4.138;2023-07-20T14:10:19;1.40;;;1.30;;
76171;SDS011;64929;51.178;4.138;2023-07-20T14:12:45;1.23;;;1.13;;
76171;SDS011;64929;51.178;4.138;2023-07-20T14:15:11;1.73;;;1.60;;
76171;SDS011;64929;51.178;4.138;2023-07-20T14:17:36;1.92;;;1.38;;
76171;SDS011;64929;51.178;4.138;2023-07-20T14:20:02;1.75;;;1.23;;
76171;SDS011;64929;51.178;4.138;2023-07-20T14:22:31;3.83;;;1.30;;
76171;SDS011;64929;51.178;4.138;2023-07-20T14:24:57;1.05;;;0.95;;
76171;SDS011;64929;51.178;4.138;2023-07-20T14:27:23;1.20;;;1.10;;
76171;SDS011;64929;51.178;4.138;2023-07-20T14:29:49;5.70;;;1.13;;
76171;SDS011;64929;51.178;4.138;2023-07-20T14:32:15;1.13;;;0.70;;
76171;SDS011;64929;51.178;4.138;2023-07-20T14:34:41;0.60;;;0.60;;
76171;SDS011;64929;51.178;4.138;2023-07-20T14:37:06;0.55;;;0.52;;
76171;SDS011;64929;51.178;4.138;2023-07-20T14:39:32;0.73;;;0.45;;
76171;SDS011;64929;51.178;4.138;2023-07-20T14:41:58;1.13;;;0.70;;
76171;SDS011;64929;51.178;4.138;2023-07-20T14:44:24;0.77;;;0.47;;
76171;SDS011;64929;51.178;4.138;2023-07-20T14:46:50;0.93;;;0.70;;
76171;SDS011;64929;51.178;4.138;2023-07-20T14:49:16;2.15;;;0.60;;
76171;SDS011;64929;51.178;4.138;2023-07-20T14:51:43;0.63;;;0.40;;
76171;SDS011;64929;51.178;4.138;2023-07-20T14:54:11;1.15;;;0.55;;
76171;SDS011;64929;51.178;4.138;2023-07-20T14:56:38;1.90;;;0.60;;
76171;SDS011;64929;51.178;4.138;2023-07-20T14:59:05;0.50;;;0.50;;
76171;SDS011;64929;51.178;4.138;2023-07-20T15:01:31;1.52;;;0.80;;
76171;SDS011;64929;51.178;4.138;2023-07-20T15:03:57;0.70;;;0.60;;
76171;SDS011;64929;51.178;4.138;2023-07-20T15:06:25;3.13;;;1.00;;
76171;SDS011;64929;51.178;4.138;2023-07-20T15:08:51;1.42;;;0.80;;
76171;SDS011;64929;51.178;4.138;2023-07-20T15:11:17;1.00;;;0.90;;
76171;SDS011;64929;51.178;4.138;2023-07-20T15:13:43;1.83;;;0.85;;
76171;SDS011;64929;51.178;4.138;2023-07-20T15:16:08;1.73;;;0.90;;
76171;SDS011;64929;51.178;4.138;2023-07-20T15:18:37;1.88;;;1.10;;
76171;SDS011;64929;51.178;4.138;2023-07-20T15:21:03;3.13;;;1.45;;
76171;SDS011;64929;51.178;4.138;2023-07-20T15:23:29;1.52;;;1.17;;
76171;SDS011;64929;51.178;4.138;2023-07-20T15:25:54;2.75;;;1.25;;
76171;SDS011;64929;51.178;4.138;2023-07-20T15:28:21;1.85;;;1.25;;
76171;SDS011;64929;51.178;4.138;2023-07-20T15:30:47;1.20;;;1.10;;
76171;SDS011;64929;51.178;4.138;2023-07-20T15:33:13;2.80;;;1.17;;
76171;SDS011;64929;51.178;4.138;2023-07-20T15:35:39;3.55;;;1.50;;
76171;SDS011;64929;51.178;4.138;2023-07-20T15:38:04;2.53;;;1.23;;
76171;SDS011;64929;51.178;4.138;2023-07-20T15:40:30;1.77;;;1.20;;
76171;SDS011;64929;51.178;4.138;2023-07-20T15:42:56;1.95;;;1.30;;
76171;SDS011;64929;51.178;4.138;2023-07-20T15:45:21;1.40;;;1.10;;
76171;SDS011;64929;51.178;4.138;2023-07-20T15:47:48;3.92;;;1.50;;
76171;SDS011;64929;51.178;4.138;2023-07-20T15:50:14;2.17;;;1.40;;
76171;SDS011;64929;51.178;4.138;2023-07-20T15:52:41;2.03;;;1.20;;